Time;durP1;ratioP1;P1;durP2;ratioP2;P2;SDS_P1;SDS_P2;PMS_P1;PMS_P2;Temp;Humidity;BMP_temperature;BMP_pressure;BME280_temperature;BME280_humidity;BME280_pressure;Samples;Min_cycle;Max_cycle;Signal;HPM_P1;HPM_P2
2023/05/05 00:01:01;;;;;;;0.00;0.00;;;12.50;69.80;;;;;;4982958;28;20051;-67
2023/05/05 00:03:26;;;;;;;0.00;0.00;;;12.50;69.30;;;;;;4952031;28;20170;-68
2023/05/05 00:05:53;;;;;;;0.00;0.00;;;12.50;69.20;;;;;;4950869;28;20143;-67
2023/05/05 00:08:20;;;;;;;0.00;0.00;;;12.50;69.50;;;;;;4951689;28;20039;-67
2023/05/05 00:10:50;;;;;;;0.00;0.00;;;12.60;69.40;;;;;;4971059;28;20062;-68
2023/05/05 00:13:17;;;;;;;0.00;0.00;;;12.60;69.40;;;;;;4973346;28;20047;-67
2023/05/05 00:15:44;;;;;;;0.00;0.00;;;12.60;69.30;;;;;;4970934;28;20522;-67
2023/05/05 00:18:11;;;;;;;0.05;0.05;;;12.60;69.50;;;;;;4974023;28;20053;-68
2023/05/05 00:20:37;;;;;;;0.10;0.10;;;12.60;69.60;;;;;;4958668;28;20034;-67
2023/05/05 00:23:03;;;;;;;0.70;0.32;;;12.60;69.40;;;;;;4976279;28;20113;-67
2023/05/05 00:25:29;;;;;;;0.00;0.00;;;12.60;69.60;;;;;;4966058;28;20093;-67
2023/05/05 00:27:54;;;;;;;0.00;0.00;;;12.60;69.60;;;;;;4974972;28;20046;-67
2023/05/05 00:30:21;;;;;;;0.00;0.00;;;12.60;69.10;;;;;;4959929;28;20043;-67
2023/05/05 00:32:47;;;;;;;0.30;0.30;;;12.60;69.20;;;;;;4969087;28;20080;-67
2023/05/05 00:35:14;;;;;;;0.00;0.00;;;12.60;69.50;;;;;;4989225;28;20137;-67
2023/05/05 00:37:40;;;;;;;0.00;0.00;;;12.60;69.50;;;;;;4971382;28;20460;-67
2023/05/05 00:40:06;;;;;;;0.00;0.00;;;12.60;69.40;;;;;;4951570;29;20079;-67
2023/05/05 00:42:45;;;;;;;0.00;0.00;;;12.60;69.70;;;;;;4957538;28;20106;-67
2023/05/05 00:45:15;;;;;;;0.00;0.00;;;12.60;69.80;;;;;;4958335;28;20082;-67
2023/05/05 00:47:43;;;;;;;0.00;0.00;;;12.50;70.10;;;;;;4975992;28;20085;-67
2023/05/05 00:50:09;;;;;;;0.00;0.00;;;12.50;70.40;;;;;;4984754;28;20047;-67
2023/05/05 00:52:38;;;;;;;0.00;0.00;;;12.50;69.90;;;;;;4976190;28;20050;-67
2023/05/05 00:55:04;;;;;;;0.03;0.03;;;12.50;70.20;;;;;;4962638;28;20554;-67
2023/05/05 00:57:31;;;;;;;0.00;0.00;;;12.40;70.00;;;;;;4973507;28;20042;-67
2023/05/05 00:59:58;;;;;;;0.00;0.00;;;12.40;70.00;;;;;;4966880;28;20047;-67
2023/05/05 01:02:24;;;;;;;0.30;0.30;;;12.40;70.50;;;;;;4950623;28;20051;-67
2023/05/05 01:04:50;;;;;;;0.00;0.00;;;12.30;70.30;;;;;;4970568;28;20035;-67
2023/05/05 01:07:31;;;;;;;0.00;0.00;;;12.30;70.40;;;;;;4969806;28;20499;-68
2023/05/05 01:10:21;;;;;;;0.00;0.00;;;12.30;70.40;;;;;;4951935;28;20055;-67
2023/05/05 01:12:59;;;;;;;0.00;0.00;;;12.30;70.30;;;;;;4977321;28;20038;-67
2023/05/05 01:15:51;;;;;;;0.15;0.15;;;12.20;70.60;;;;;;4969865;28;20120;-67
2023/05/05 01:18:35;;;;;;;0.00;0.00;;;12.20;70.50;;;;;;4966132;28;20053;-67
2023/05/05 01:21:16;;;;;;;0.00;0.00;;;12.20;70.40;;;;;;4954424;28;20046;-68
2023/05/05 01:24:03;;;;;;;0.00;0.00;;;12.20;70.50;;;;;;4973185;28;20042;-67
2023/05/05 01:26:52;;;;;;;0.00;0.00;;;12.20;70.40;;;;;;4961553;28;20055;-68
2023/05/05 01:29:39;;;;;;;0.00;0.00;;;12.10;70.50;;;;;;4977323;28;20073;-68
2023/05/05 01:32:11;;;;;;;0.28;0.28;;;12.10;70.70;;;;;;4976728;28;20500;-67
2023/05/05 01:34:47;;;;;;;;;;;12.20;70.90;;;;;;4968541;28;20046;-67
2023/05/05 01:37:23;;;;;;;0.00;0.00;;;12.20;70.60;;;;;;4968393;28;20601;-67
2023/05/05 01:39:54;;;;;;;0.00;0.00;;;12.20;70.30;;;;;;4969276;28;20482;-67
2023/05/05 01:42:21;;;;;;;0.00;0.00;;;12.20;70.10;;;;;;4970129;28;20078;-68
2023/05/05 01:44:48;;;;;;;0.00;0.00;;;12.20;70.20;;;;;;4969088;28;20076;-66
2023/05/05 01:47:17;;;;;;;0.00;0.00;;;12.20;70.00;;;;;;4982311;28;20108;-67
2023/05/05 01:49:45;;;;;;;0.45;0.45;;;12.20;70.20;;;;;;4972867;28;20144;-67
2023/05/05 01:52:13;;;;;;;0.00;0.00;;;12.20;70.30;;;;;;4969674;28;20039;-67
2023/05/05 01:54:39;;;;;;;0.00;0.00;;;12.20;70.10;;;;;;4958781;28;20845;-67
2023/05/05 01:57:07;;;;;;;0.00;0.00;;;12.10;70.50;;;;;;4957840;28;20043;-67
2023/05/05 01:59:34;;;;;;;0.00;0.00;;;12.20;70.40;;;;;;4958022;28;20071;-67
2023/05/05 02:02:01;;;;;;;0.00;0.00;;;12.10;70.60;;;;;;4984170;28;20042;-67
2023/05/05 02:04:30;;;;;;;0.00;0.00;;;12.10;70.90;;;;;;4969486;28;20054;-67
2023/05/05 02:06:57;;;;;;;0.00;0.00;;;12.10;70.90;;;;;;4956911;28;20519;-67
2023/05/05 02:09:24;;;;;;;0.00;0.00;;;12.10;70.80;;;;;;4973672;28;20061;-67
2023/05/05 02:11:51;;;;;;;0.00;0.00;;;12.10;70.80;;;;;;4973426;28;20057;-68
2023/05/05 02:14:19;;;;;;;0.00;0.00;;;12.10;71.10;;;;;;4972102;28;20058;-67
2023/05/05 02:16:45;;;;;;;0.10;0.10;;;12.10;71.30;;;;;;4965922;28;20046;-67
2023/05/05 02:19:12;;;;;;;0.00;0.00;;;12.10;71.40;;;;;;4973045;28;20133;-67
2023/05/05 02:21:38;;;;;;;0.00;0.00;;;12.10;71.60;;;;;;4975952;28;20133;-67
2023/05/05 02:24:04;;;;;;;0.00;0.00;;;12.10;71.80;;;;;;4988091;28;20134;-67
2023/05/05 02:26:38;;;;;;;0.00;0.00;;;12.10;71.80;;;;;;4975199;28;20043;-67
2023/05/05 02:29:13;;;;;;;0.00;0.00;;;12.10;71.70;;;;;;4985649;28;20062;-67
2023/05/05 02:31:46;;;;;;;0.00;0.00;;;12.10;71.20;;;;;;4990057;28;20076;-67
2023/05/05 02:34:15;;;;;;;0.00;0.00;;;12.10;71.10;;;;;;4970057;28;20038;-67
2023/05/05 02:36:43;;;;;;;0.00;0.00;;;12.10;71.50;;;;;;4990180;28;20080;-68
2023/05/05 02:39:26;;;;;;;0.00;0.00;;;12.10;71.70;;;;;;5004915;28;20054;-67
2023/05/05 02:41:54;;;;;;;0.05;0.05;;;12.10;71.80;;;;;;4989932;28;20492;-67
2023/05/05 02:44:22;;;;;;;0.00;0.00;;;12.10;71.50;;;;;;4959136;28;20046;-68
2023/05/05 02:46:48;;;;;;;0.00;0.00;;;12.10;71.40;;;;;;4971739;28;20041;-67
2023/05/05 02:49:14;;;;;;;0.00;0.00;;;12.10;71.60;;;;;;4972053;28;20051;-67
2023/05/05 02:51:40;;;;;;;0.03;0.03;;;12.10;71.70;;;;;;4971218;28;20149;-67
2023/05/05 02:54:05;;;;;;;0.00;0.00;;;12.10;71.40;;;;;;4972201;28;20043;-67
2023/05/05 02:56:48;;;;;;;0.00;0.00;;;12.10;71.30;;;;;;4969834;28;20507;-68
2023/05/05 02:59:33;;;;;;;0.00;0.00;;;12.10;71.70;;;;;;4966075;28;20051;-68
2023/05/05 03:02:22;;;;;;;0.00;0.00;;;12.10;71.50;;;;;;4961898;28;20078;-67
2023/05/05 03:04:54;;;;;;;0.00;0.00;;;12.10;71.70;;;;;;4953052;28;20493;-67
2023/05/05 03:07:30;;;;;;;0.00;0.00;;;12.10;71.90;;;;;;4964379;28;20530;-67
2023/05/05 03:10:13;;;;;;;0.10;0.10;;;12.10;72.00;;;;;;4968905;28;20920;-68
2023/05/05 03:12:46;;;;;;;0.00;0.00;;;12.10;71.90;;;;;;4984244;28;20517;-68
2023/05/05 03:15:13;;;;;;;0.05;0.05;;;12.10;72.00;;;;;;4953075;28;20171;-67
2023/05/05 03:17:40;;;;;;;0.10;0.10;;;12.10;72.00;;;;;;4955649;28;20047;-67
2023/05/05 03:20:06;;;;;;;0.00;0.00;;;12.10;72.20;;;;;;4960179;28;20400;-67
2023/05/05 03:22:36;;;;;;;0.00;0.00;;;12.10;72.40;;;;;;4972253;28;20050;-67
2023/05/05 03:25:02;;;;;;;0.00;0.00;;;12.20;72.70;;;;;;4983596;28;20584;-67
2023/05/05 03:27:28;;;;;;;0.00;0.00;;;12.20;73.00;;;;;;4964004;28;20567;-67
2023/05/05 03:29:53;;;;;;;0.00;0.00;;;12.20;74.00;;;;;;4965751;28;20053;-67
2023/05/05 03:32:19;;;;;;;0.00;0.00;;;12.20;73.80;;;;;;4980375;28;20148;-68
2023/05/05 03:34:44;;;;;;;0.00;0.00;;;12.20;74.30;;;;;;4971324;28;20047;-68
2023/05/05 03:37:10;;;;;;;0.00;0.00;;;12.10;76.00;;;;;;4960945;28;20457;-68
2023/05/05 03:39:36;;;;;;;0.15;0.15;;;12.10;75.50;;;;;;4952295;28;20047;-68
2023/05/05 03:42:01;;;;;;;0.00;0.00;;;12.00;75.50;;;;;;4955951;28;20213;-68
2023/05/05 03:44:27;;;;;;;0.00;0.00;;;12.00;75.40;;;;;;4971177;28;20133;-68
2023/05/05 03:46:52;;;;;;;0.00;0.00;;;12.00;76.80;;;;;;4969577;28;20038;-69
2023/05/05 03:49:18;;;;;;;0.00;0.00;;;12.00;76.90;;;;;;4970976;28;20039;-68
2023/05/05 03:51:43;;;;;;;0.00;0.00;;;11.90;76.20;;;;;;4969624;28;20051;-68
2023/05/05 03:54:09;;;;;;;0.00;0.00;;;11.90;75.90;;;;;;4950711;28;21092;-68
2023/05/05 03:56:34;;;;;;;0.17;0.17;;;11.70;75.80;;;;;;4956787;28;20041;-68
2023/05/05 03:59:01;;;;;;;0.00;0.00;;;11.70;76.30;;;;;;4966303;28;20050;-68
2023/05/05 04:01:28;;;;;;;0.00;0.00;;;11.70;76.20;;;;;;4950650;28;20051;-68
2023/05/05 04:03:55;;;;;;;0.00;0.00;;;11.70;76.60;;;;;;4954228;28;20047;-67
2023/05/05 04:06:20;;;;;;;0.00;0.00;;;11.70;77.10;;;;;;4969920;28;20050;-68
2023/05/05 04:08:46;;;;;;;0.00;0.00;;;11.70;77.30;;;;;;4971451;28;20043;-69
2023/05/05 04:11:11;;;;;;;0.00;0.00;;;11.70;77.80;;;;;;4970705;28;20518;-68
2023/05/05 04:13:37;;;;;;;0.00;0.00;;;11.70;77.40;;;;;;4967412;28;20038;-68
2023/05/05 04:16:03;;;;;;;0.00;0.00;;;11.60;77.20;;;;;;4983229;28;20054;-68
2023/05/05 04:18:29;;;;;;;0.00;0.00;;;11.60;77.20;;;;;;4961578;28;20077;-68
2023/05/05 04:20:54;;;;;;;0.00;0.00;;;11.60;77.60;;;;;;4953636;28;20129;-68
2023/05/05 04:23:20;;;;;;;0.00;0.00;;;11.60;78.00;;;;;;4965679;28;20705;-68
2023/05/05 04:25:46;;;;;;;0.00;0.00;;;11.60;78.00;;;;;;4956102;28;20090;-68
2023/05/05 04:28:11;;;;;;;0.00;0.00;;;11.60;78.30;;;;;;4974202;28;20039;-68
2023/05/05 04:30:37;;;;;;;0.00;0.00;;;11.50;77.80;;;;;;4969972;28;20142;-68
2023/05/05 04:33:03;;;;;;;0.00;0.00;;;11.50;78.00;;;;;;4966330;28;20057;-68
2023/05/05 04:35:28;;;;;;;0.00;0.00;;;11.60;78.20;;;;;;4966996;28;20050;-68
2023/05/05 04:37:54;;;;;;;0.00;0.00;;;11.60;78.60;;;;;;5000618;28;20423;-68
2023/05/05 04:40:20;;;;;;;0.00;0.00;;;11.60;78.80;;;;;;4975106;28;20050;-69
2023/05/05 04:42:45;;;;;;;0.00;0.00;;;11.50;78.80;;;;;;4952117;28;20122;-68
2023/05/05 04:45:11;;;;;;;0.00;0.00;;;11.60;78.60;;;;;;4954720;28;20526;-68
2023/05/05 04:47:38;;;;;;;0.00;0.00;;;11.50;78.80;;;;;;4963554;28;20050;-68
2023/05/05 04:50:05;;;;;;;0.00;0.00;;;11.60;78.70;;;;;;4970137;28;20051;-68
2023/05/05 04:52:30;;;;;;;0.00;0.00;;;11.50;79.10;;;;;;4970103;28;20070;-68
2023/05/05 04:54:56;;;;;;;0.00;0.00;;;11.50;79.00;;;;;;4970154;28;20325;-68
2023/05/05 04:57:21;;;;;;;0.05;0.05;;;11.50;79.30;;;;;;4970260;28;20055;-68
2023/05/05 04:59:47;;;;;;;0.00;0.00;;;11.50;80.00;;;;;;4970163;28;20462;-67
2023/05/05 05:02:13;;;;;;;0.10;0.10;;;11.50;79.70;;;;;;4954173;28;20042;-68
2023/05/05 05:04:38;;;;;;;0.00;0.00;;;11.50;80.00;;;;;;4953252;28;20047;-68
2023/05/05 05:07:04;;;;;;;0.00;0.00;;;11.60;80.30;;;;;;4966540;28;20051;-67
2023/05/05 05:09:29;;;;;;;0.03;0.03;;;11.50;80.30;;;;;;4950445;28;20046;-68
2023/05/05 05:11:59;;;;;;;0.00;0.00;;;11.50;80.10;;;;;;4966081;28;20043;-68
2023/05/05 05:14:26;;;;;;;0.00;0.00;;;11.50;79.80;;;;;;4958075;28;20182;-73
2023/05/05 05:16:52;;;;;;;0.00;0.00;;;11.70;83.30;;;;;;4959383;28;20051;-73
2023/05/05 05:19:18;;;;;;;0.05;0.05;;;12.30;82.80;;;;;;4965147;28;20121;-73
2023/05/05 05:21:43;;;;;;;0.00;0.00;;;13.00;80.30;;;;;;4961163;28;20072;-67
2023/05/05 05:24:10;;;;;;;0.00;0.00;;;13.30;78.70;;;;;;4964021;28;20491;-68
2023/05/05 05:26:36;;;;;;;0.00;0.00;;;13.30;78.20;;;;;;4977258;28;20050;-70
2023/05/05 05:29:02;;;;;;;0.00;0.00;;;13.10;77.70;;;;;;4977736;28;20133;-67
2023/05/05 05:31:28;;;;;;;0.00;0.00;;;13.00;77.60;;;;;;4962296;28;20035;-67
2023/05/05 05:33:55;;;;;;;0.00;0.00;;;12.80;77.80;;;;;;4969705;28;20408;-67
2023/05/05 05:36:20;;;;;;;0.00;0.00;;;12.60;77.90;;;;;;4972564;28;20050;-67
2023/05/05 05:38:46;;;;;;;0.00;0.00;;;12.50;78.00;;;;;;4973285;28;20050;-68
2023/05/05 05:41:11;;;;;;;0.00;0.00;;;12.40;78.20;;;;;;4973534;28;20043;-68
2023/05/05 05:43:37;;;;;;;0.00;0.00;;;12.20;78.30;;;;;;4971940;28;20735;-67
2023/05/05 05:46:02;;;;;;;0.00;0.00;;;12.10;78.60;;;;;;4975482;28;20034;-67
2023/05/05 05:48:28;;;;;;;0.00;0.00;;;12.20;78.90;;;;;;4979958;28;20043;-67
2023/05/05 05:50:55;;;;;;;0.00;0.00;;;12.10;79.10;;;;;;4972723;28;20078;-67
2023/05/05 05:53:20;;;;;;;0.00;0.00;;;12.10;79.40;;;;;;4972686;28;20058;-67
2023/05/05 05:55:46;;;;;;;0.00;0.00;;;12.10;79.80;;;;;;4972247;28;20046;-67
2023/05/05 05:58:12;;;;;;;0.00;0.00;;;12.10;79.80;;;;;;4972900;28;20053;-67
2023/05/05 06:00:37;;;;;;;0.00;0.00;;;12.10;80.10;;;;;;4971164;28;20085;-67
2023/05/05 06:03:03;;;;;;;0.00;0.00;;;12.10;80.20;;;;;;4963020;28;20768;-67
2023/05/05 06:05:28;;;;;;;0.00;0.00;;;12.10;80.30;;;;;;4967383;28;20042;-68
2023/05/05 06:07:54;;;;;;;0.00;0.00;;;12.20;80.50;;;;;;4966945;28;20046;-67
2023/05/05 06:10:19;;;;;;;0.00;0.00;;;12.20;81.20;;;;;;4970635;28;20069;-67
2023/05/05 06:12:45;;;;;;;0.00;0.00;;;12.30;81.70;;;;;;4969807;28;20045;-67
2023/05/05 06:15:10;;;;;;;0.00;0.00;;;12.30;81.60;;;;;;4970314;28;20043;-67
2023/05/05 06:17:36;;;;;;;0.00;0.00;;;12.30;81.00;;;;;;4971224;28;20035;-67
2023/05/05 06:20:02;;;;;;;0.00;0.00;;;12.40;81.00;;;;;;4970804;28;20121;-67
2023/05/05 06:22:27;;;;;;;0.00;0.00;;;12.40;81.00;;;;;;4970890;28;20082;-68
2023/05/05 06:24:53;;;;;;;0.00;0.00;;;12.40;80.80;;;;;;4970449;28;20043;-69
2023/05/05 06:27:18;;;;;;;0.00;0.00;;;12.40;81.30;;;;;;4969545;28;20038;-68
2023/05/05 06:29:44;;;;;;;0.00;0.00;;;12.40;81.20;;;;;;4970801;28;20161;-68
2023/05/05 06:32:11;;;;;;;0.00;0.00;;;12.50;81.40;;;;;;4969861;28;20447;-67
2023/05/05 06:34:37;;;;;;;0.00;0.00;;;12.50;81.40;;;;;;4972682;28;20625;-67
2023/05/05 06:37:02;;;;;;;0.00;0.00;;;12.60;81.30;;;;;;4969743;28;20049;-68
2023/05/05 06:39:28;;;;;;;0.00;0.00;;;12.60;81.10;;;;;;4971337;28;20055;-68
2023/05/05 06:41:53;;;;;;;0.00;0.00;;;12.70;81.20;;;;;;4969739;28;20507;-67
2023/05/05 06:44:19;;;;;;;0.00;0.00;;;12.70;81.30;;;;;;4969644;28;20050;-68
2023/05/05 06:46:44;;;;;;;0.00;0.00;;;12.80;81.20;;;;;;4969760;28;20050;-67
2023/05/05 06:49:10;;;;;;;0.00;0.00;;;12.80;81.30;;;;;;4969435;28;20043;-67
2023/05/05 06:51:36;;;;;;;0.00;0.00;;;12.90;81.10;;;;;;4969178;28;20046;-65
2023/05/05 06:54:01;;;;;;;0.00;0.00;;;13.00;81.40;;;;;;4968831;28;20039;-66
2023/05/05 06:56:29;;;;;;;0.00;0.00;;;13.10;81.70;;;;;;4961371;28;20518;-67
2023/05/05 06:58:55;;;;;;;0.47;0.47;;;13.10;81.40;;;;;;4965335;28;20110;-67
2023/05/05 07:01:20;;;;;;;0.10;0.10;;;13.10;81.40;;;;;;4969011;28;20491;-66
2023/05/05 07:03:46;;;;;;;0.00;0.00;;;13.20;81.30;;;;;;4970125;28;20562;-67
2023/05/05 07:06:12;;;;;;;0.00;0.00;;;13.20;81.90;;;;;;4966080;28;20059;-68
2023/05/05 07:08:37;;;;;;;0.00;0.00;;;13.30;81.70;;;;;;4970287;28;20046;-66
2023/05/05 07:11:03;;;;;;;1.08;0.93;;;13.40;81.50;;;;;;4968401;28;20121;-67
2023/05/05 07:13:29;;;;;;;0.00;0.00;;;13.50;81.30;;;;;;4969059;28;20050;-66
2023/05/05 07:15:54;;;;;;;0.00;0.00;;;13.50;81.30;;;;;;4967566;28;20496;-68
2023/05/05 07:18:20;;;;;;;0.00;0.00;;;13.60;81.40;;;;;;4967714;28;20055;-68
2023/05/05 07:20:46;;;;;;;0.00;0.00;;;13.70;81.50;;;;;;4969286;28;20042;-66
2023/05/05 07:23:12;;;;;;;0.00;0.00;;;13.90;81.50;;;;;;4969883;28;20046;-66
2023/05/05 07:25:37;;;;;;;0.00;0.00;;;13.90;80.80;;;;;;4965277;28;20055;-67
2023/05/05 07:28:03;;;;;;;0.00;0.00;;;14.00;80.80;;;;;;4965209;28;20641;-67
2023/05/05 07:30:29;;;;;;;0.00;0.00;;;14.10;80.60;;;;;;4967760;28;20049;-66
2023/05/05 07:32:55;;;;;;;0.15;0.15;;;14.10;80.60;;;;;;4964850;28;20047;-67
2023/05/05 07:35:21;;;;;;;0.03;0.03;;;14.30;80.80;;;;;;4968318;28;20588;-67
2023/05/05 07:37:47;;;;;;;0.00;0.00;;;14.30;80.90;;;;;;4968897;28;20057;-66
2023/05/05 07:40:13;;;;;;;0.00;0.00;;;14.50;80.20;;;;;;4968285;28;20054;-66
2023/05/05 07:42:38;;;;;;;0.03;0.03;;;14.60;80.10;;;;;;4968759;28;20039;-67
2023/05/05 07:45:05;;;;;;;0.00;0.00;;;14.60;80.50;;;;;;4967993;28;20427;-67
2023/05/05 07:47:31;;;;;;;0.00;0.00;;;14.70;80.90;;;;;;4968779;28;20043;-66
2023/05/05 07:49:57;;;;;;;0.00;0.00;;;14.80;81.20;;;;;;4968424;28;20051;-67
2023/05/05 07:52:23;;;;;;;0.00;0.00;;;14.90;81.20;;;;;;4965679;28;20066;-67
2023/05/05 07:54:48;;;;;;;0.00;0.00;;;15.00;81.00;;;;;;4975465;28;20058;-67
2023/05/05 07:57:14;;;;;;;0.00;0.00;;;15.10;81.20;;;;;;4969720;28;20412;-66
2023/05/05 07:59:42;;;;;;;0.00;0.00;;;15.20;81.20;;;;;;4967766;28;20062;-66
2023/05/05 08:02:11;;;;;;;0.00;0.00;;;15.30;80.80;;;;;;4968333;28;20514;-66
2023/05/05 08:04:39;;;;;;;0.00;0.00;;;15.30;80.50;;;;;;4964012;28;20480;-66
2023/05/05 08:07:06;;;;;;;0.00;0.00;;;15.40;80.40;;;;;;4966588;28;20558;-68
2023/05/05 08:09:33;;;;;;;0.03;0.03;;;15.40;80.30;;;;;;4968103;28;20393;-68
2023/05/05 08:12:00;;;;;;;0.00;0.00;;;15.50;80.60;;;;;;4950320;28;20047;-68
2023/05/05 08:14:25;;;;;;;0.00;0.00;;;15.60;80.70;;;;;;4964349;28;20086;-67
2023/05/05 08:16:51;;;;;;;0.00;0.00;;;15.70;80.80;;;;;;4967949;28;20080;-67
2023/05/05 08:19:18;;;;;;;0.10;0.10;;;15.80;80.70;;;;;;4967570;28;20071;-68
2023/05/05 08:21:43;;;;;;;0.00;0.00;;;15.90;80.60;;;;;;4968078;28;20057;-68
2023/05/05 08:24:09;;;;;;;0.08;0.08;;;16.00;80.50;;;;;;4975030;28;20051;-68
2023/05/05 08:26:34;;;;;;;0.10;0.10;;;16.00;80.60;;;;;;4974776;28;20471;-68
2023/05/05 08:29:00;;;;;;;0.00;0.00;;;16.10;80.30;;;;;;4967971;28;20418;-66
2023/05/05 08:31:27;;;;;;;0.00;0.00;;;16.10;80.20;;;;;;4966652;28;20086;-67
2023/05/05 08:33:53;;;;;;;0.00;0.00;;;16.20;80.20;;;;;;4968869;28;20043;-67
2023/05/05 08:36:19;;;;;;;0.00;0.00;;;16.20;80.10;;;;;;4965036;28;20043;-67
2023/05/05 08:38:45;;;;;;;0.00;0.00;;;16.20;80.00;;;;;;4968238;28;20396;-65
2023/05/05 08:41:13;;;;;;;0.00;0.00;;;16.30;79.80;;;;;;4966373;28;20043;-65
2023/05/05 08:43:38;;;;;;;0.00;0.00;;;16.30;79.90;;;;;;4968290;28;20733;-68
2023/05/05 08:46:05;;;;;;;0.00;0.00;;;16.30;80.10;;;;;;4951116;28;20050;-66
2023/05/05 08:48:34;;;;;;;0.00;0.00;;;16.30;80.10;;;;;;4967845;28;20074;-66
2023/05/05 08:51:03;;;;;;;0.00;0.00;;;16.30;80.00;;;;;;4967757;28;20045;-73
2023/05/05 08:54:01;;;;;;;0.00;0.00;;;16.30;79.90;;;;;;4967839;28;21049;-66
2023/05/05 08:56:37;;;;;;;0.05;0.05;;;16.40;79.90;;;;;;4970060;28;20149;-66
2023/05/05 08:59:03;;;;;;;0.00;0.00;;;16.40;79.70;;;;;;4975435;28;20045;-66
2023/05/05 09:01:30;;;;;;;0.00;0.00;;;16.40;79.50;;;;;;4974161;28;20034;-66
2023/05/05 09:03:58;;;;;;;0.00;0.00;;;16.50;79.60;;;;;;4973458;28;20121;-65
2023/05/05 09:06:25;;;;;;;0.38;0.20;;;16.60;79.40;;;;;;4970868;28;20035;-65
2023/05/05 09:08:52;;;;;;;0.10;0.10;;;16.70;79.60;;;;;;4973939;28;20078;-65
2023/05/05 09:11:17;;;;;;;0.00;0.00;;;16.70;79.50;;;;;;4972607;28;20086;-65
2023/05/05 09:13:43;;;;;;;0.17;0.17;;;16.80;79.70;;;;;;4970767;28;20082;-65
2023/05/05 09:16:09;;;;;;;0.25;0.25;;;16.90;78.90;;;;;;4973953;28;20034;-65
2023/05/05 09:18:39;;;;;;;0.00;0.00;;;16.70;77.00;;;;;;4971313;28;20109;-65
2023/05/05 09:21:19;;;;;;;0.47;0.20;;;16.70;77.20;;;;;;4974235;28;20058;-66
2023/05/05 09:24:20;;;;;;;0.03;0.03;;;16.80;77.60;;;;;;4972606;28;20055;-65
2023/05/05 09:26:47;;;;;;;0.37;0.37;;;16.80;77.80;;;;;;4969388;28;20081;-65
2023/05/05 09:29:20;;;;;;;8.43;0.80;;;16.80;77.70;;;;;;4972323;28;20213;-65
2023/05/05 09:32:04;;;;;;;0.17;0.17;;;16.80;77.50;;;;;;4969731;28;20054;-64
2023/05/05 09:34:31;;;;;;;0.20;0.20;;;16.80;76.70;;;;;;4972200;28;20062;-65
2023/05/05 09:36:57;;;;;;;0.00;0.00;;;16.80;76.60;;;;;;4972739;28;20447;-65
2023/05/05 09:39:22;;;;;;;0.73;0.73;;;16.90;76.60;;;;;;4969896;28;20054;-65
2023/05/05 09:41:48;;;;;;;0.00;0.00;;;16.80;77.00;;;;;;4973272;28;20595;-64
2023/05/05 09:44:17;;;;;;;0.10;0.10;;;16.90;77.20;;;;;;4966941;28;20445;-65
2023/05/05 09:46:50;;;;;;;0.00;0.00;;;17.00;77.40;;;;;;4970981;28;20039;-64
2023/05/05 09:49:17;;;;;;;0.10;0.10;;;17.10;77.30;;;;;;4974924;28;20455;-65
2023/05/05 09:51:46;;;;;;;0.00;0.00;;;17.10;75.30;;;;;;4975685;28;20042;-65
2023/05/05 09:54:25;;;;;;;0.10;0.10;;;17.20;75.60;;;;;;4970409;28;20055;-65
2023/05/05 09:56:51;;;;;;;0.20;0.20;;;17.30;75.60;;;;;;4957105;28;20093;-64
2023/05/05 09:59:17;;;;;;;0.28;0.28;;;17.50;75.70;;;;;;4960092;28;20079;-71
2023/05/05 10:01:43;;;;;;;0.00;0.00;;;17.50;73.80;;;;;;4964680;28;20121;-63
2023/05/05 10:04:29;;;;;;;0.52;0.52;;;17.60;74.50;;;;;;4965482;28;20609;-64
2023/05/05 10:06:55;;;;;;;0.10;0.10;;;17.70;73.70;;;;;;4961649;28;20496;-64
2023/05/05 10:09:22;;;;;;;0.20;0.20;;;17.60;72.90;;;;;;4958103;28;20059;-64
2023/05/05 10:11:48;;;;;;;1.00;0.47;;;17.60;73.40;;;;;;4974890;28;20054;-63
2023/05/05 10:14:16;;;;;;;0.10;0.10;;;17.60;73.20;;;;;;4979934;28;20051;-63
2023/05/05 10:16:50;;;;;;;0.00;0.00;;;17.60;73.50;;;;;;4980270;28;20566;-63
2023/05/05 10:19:17;;;;;;;0.28;0.28;;;17.60;73.60;;;;;;4977836;28;20051;-63
2023/05/05 10:21:49;;;;;;;0.00;0.00;;;17.70;73.40;;;;;;4961566;28;20036;-63
2023/05/05 10:24:14;;;;;;;;;;;17.80;73.60;;;;;;4953212;28;20052;-64
2023/05/05 10:26:43;;;;;;;0.00;0.00;;;17.90;73.20;;;;;;4953258;28;19949;-64
2023/05/05 10:29:41;;;;;;;0.20;0.20;;;18.00;73.10;;;;;;4961678;28;20440;-64
2023/05/05 10:32:42;;;;;;;0.13;0.13;;;18.00;72.60;;;;;;4952731;28;20039;-64
2023/05/05 10:35:08;;;;;;;0.00;0.00;;;18.00;72.10;;;;;;4950219;28;20110;-64
2023/05/05 10:37:36;;;;;;;0.00;0.00;;;18.20;72.80;;;;;;4972435;28;20046;-63
2023/05/05 10:40:03;;;;;;;0.00;0.00;;;18.20;72.10;;;;;;4970773;28;20122;-64
2023/05/05 10:42:29;;;;;;;0.47;0.47;;;18.30;71.30;;;;;;4953694;28;20043;-63
2023/05/05 10:44:54;;;;;;;0.63;0.63;;;18.20;71.40;;;;;;4959285;28;20077;-63
2023/05/05 10:47:22;;;;;;;0.30;0.30;;;18.20;71.90;;;;;;4967997;28;20042;-63
2023/05/05 10:49:56;;;;;;;0.00;0.00;;;18.20;72.20;;;;;;4970283;28;20055;-63
2023/05/05 10:52:32;;;;;;;0.30;0.30;;;18.10;72.00;;;;;;4953478;28;20047;-64
2023/05/05 10:55:06;;;;;;;0.00;0.00;;;18.20;72.40;;;;;;4962475;28;20140;-64
2023/05/05 10:57:38;;;;;;;0.00;0.00;;;18.10;72.40;;;;;;4972143;28;20050;-63
2023/05/05 11:00:05;;;;;;;0.35;0.35;;;18.10;72.40;;;;;;4967356;28;20070;-63
2023/05/05 11:02:30;;;;;;;0.20;0.20;;;18.10;72.00;;;;;;4958911;28;20411;-64
2023/05/05 11:05:16;;;;;;;0.43;0.43;;;18.00;72.00;;;;;;4971992;28;20126;-64
2023/05/05 11:07:46;;;;;;;0.00;0.00;;;18.10;72.40;;;;;;4971800;28;20054;-64
2023/05/05 11:10:13;;;;;;;0.00;0.00;;;18.10;72.70;;;;;;4971753;28;20114;-64
2023/05/05 11:12:56;;;;;;;0.08;0.08;;;18.10;71.80;;;;;;4972081;28;20047;-64
2023/05/05 11:15:29;;;;;;;0.00;0.00;;;18.10;71.80;;;;;;4971251;28;20051;-64
2023/05/05 11:18:01;;;;;;;0.13;0.05;;;18.10;71.10;;;;;;4970621;28;20417;-64
2023/05/05 11:20:38;;;;;;;0.00;0.00;;;18.20;71.50;;;;;;4970288;28;20126;-64
2023/05/05 11:23:03;;;;;;;0.00;0.00;;;18.20;71.10;;;;;;4969889;28;20055;-63
2023/05/05 11:25:35;;;;;;;0.00;0.00;;;18.10;71.30;;;;;;4959568;28;20506;-63
2023/05/05 11:28:17;;;;;;;0.00;0.00;;;18.30;71.60;;;;;;4970551;28;20046;-63
2023/05/05 11:30:55;;;;;;;0.00;0.00;;;18.30;71.10;;;;;;4971040;28;20424;-63
2023/05/05 11:33:27;;;;;;;0.00;0.00;;;18.30;71.10;;;;;;4971070;28;20117;-63
2023/05/05 11:35:57;;;;;;;0.30;0.25;;;18.30;71.10;;;;;;4972030;28;20086;-63
2023/05/05 11:38:35;;;;;;;0.00;0.00;;;18.40;70.70;;;;;;4969832;28;20046;-63
2023/05/05 11:41:17;;;;;;;0.00;0.00;;;18.40;70.40;;;;;;4970979;28;20419;-63
2023/05/05 11:43:43;;;;;;;0.00;0.00;;;18.50;70.20;;;;;;4970897;28;20404;-63
2023/05/05 11:46:18;;;;;;;0.00;0.00;;;18.40;69.00;;;;;;4971130;28;20043;-63
2023/05/05 11:48:53;;;;;;;0.15;0.15;;;18.40;69.30;;;;;;4953724;28;20058;-63
2023/05/05 11:51:19;;;;;;;0.00;0.00;;;18.40;70.10;;;;;;4970534;28;20078;-63
2023/05/05 11:53:46;;;;;;;0.00;0.00;;;18.40;70.80;;;;;;4965118;28;20063;-63
2023/05/05 11:56:17;;;;;;;0.00;0.00;;;18.50;70.80;;;;;;4953598;28;20597;-63
2023/05/05 11:58:44;;;;;;;;;;;18.50;70.60;;;;;;4959840;28;20133;-64
2023/05/05 12:01:10;;;;;;;0.00;0.00;;;18.50;70.80;;;;;;4959786;28;19922;-64
2023/05/05 12:03:37;;;;;;;1.55;0.98;;;18.40;70.80;;;;;;4983966;28;20054;-64
2023/05/05 12:06:03;;;;;;;0.28;0.28;;;18.40;69.00;;;;;;4973750;28;20046;-63
2023/05/05 12:08:39;;;;;;;0.00;0.00;;;18.30;70.40;;;;;;4968429;28;20054;-64
2023/05/05 12:11:07;;;;;;;0.00;0.00;;;18.20;70.00;;;;;;4955340;28;20161;-63
2023/05/05 12:13:33;;;;;;;0.17;0.17;;;18.20;70.60;;;;;;4956093;28;20097;-64
2023/05/05 12:16:12;;;;;;;0.08;0.08;;;18.20;70.80;;;;;;4969125;28;20042;-63
2023/05/05 12:18:39;;;;;;;0.10;0.10;;;18.10;70.60;;;;;;4970388;28;20543;-64
2023/05/05 12:21:17;;;;;;;0.10;0.10;;;18.10;71.10;;;;;;4969850;28;20042;-63
2023/05/05 12:23:42;;;;;;;0.00;0.00;;;18.00;71.00;;;;;;4965770;28;20039;-64
2023/05/05 12:26:24;;;;;;;0.35;0.35;;;18.00;71.00;;;;;;4958068;28;20050;-65
2023/05/05 12:28:50;;;;;;;0.00;0.00;;;17.90;71.30;;;;;;4962128;28;20113;-64
2023/05/05 12:31:16;;;;;;;0.08;0.08;;;17.80;71.30;;;;;;4956093;28;20047;-64
2023/05/05 12:33:42;;;;;;;0.00;0.00;;;17.80;71.00;;;;;;4963355;28;20063;-64
2023/05/05 12:36:08;;;;;;;0.00;0.00;;;17.60;71.30;;;;;;4984661;28;20069;-64
2023/05/05 12:38:37;;;;;;;0.00;0.00;;;17.60;71.40;;;;;;4975776;28;20054;-63
2023/05/05 12:41:03;;;;;;;0.10;0.10;;;17.60;72.00;;;;;;4976372;28;20707;-64
2023/05/05 12:43:34;;;;;;;0.00;0.00;;;17.50;72.00;;;;;;4978498;28;20093;-63
2023/05/05 12:46:04;;;;;;;0.10;0.10;;;17.40;72.40;;;;;;4969120;28;20047;-63
2023/05/05 12:48:30;;;;;;;0.00;0.00;;;17.40;74.00;;;;;;4964973;28;20108;-63
2023/05/05 12:51:11;;;;;;;0.00;0.00;;;17.30;73.70;;;;;;4967989;28;20044;-63
2023/05/05 12:53:37;;;;;;;0.00;0.00;;;17.30;74.20;;;;;;4961397;28;20756;-64
2023/05/05 12:56:03;;;;;;;0.03;0.03;;;17.20;74.40;;;;;;4958674;28;20042;-64